Time;durP1;ratioP1;P1;durP2;ratioP2;P2;SDS_P1;SDS_P2;PMS_P1;PMS_P2;Temp;Humidity;BMP_temperature;BMP_pressure;BME280_temperature;BME280_humidity;BME280_pressure;Samples;Min_cycle;Max_cycle;Signal;HPM_P1;HPM_P2
2022/01/01 00:01:57;;;;;;;11.02;8.45;;;;;;;10.58;100.00;99614.00;5014438;28;20018;-78
2022/01/01 00:04:22;;;;;;;9.88;7.10;;;;;;;10.73;100.00;99643.69;5014644;28;20042;-78
2022/01/01 00:06:47;;;;;;;14.50;8.90;;;;;;;10.70;100.00;99644.69;5014307;28;20071;-78
2022/01/01 00:09:13;;;;;;;10.75;7.88;;;;;;;10.70;100.00;99649.91;4996601;28;20036;-78
2022/01/01 00:11:38;;;;;;;13.85;7.32;;;;;;;10.59;100.00;99638.28;4996983;28;20064;-78
2022/01/01 00:14:03;;;;;;;11.13;6.97;;;;;;;10.59;100.00;99639.13;5014411;28;20026;-78
2022/01/01 00:16:29;;;;;;;8.18;5.97;;;;;;;10.63;100.00;99639.84;5014734;28;20022;-78
2022/01/01 00:18:55;;;;;;;8.25;5.97;;;;;;;10.61;100.00;99639.88;5014072;28;20085;-78
2022/01/01 00:21:20;;;;;;;8.88;6.55;;;;;;;10.69;100.00;99662.97;5014366;28;20385;-78
2022/01/01 00:23:46;;;;;;;7.57;6.28;;;;;;;10.61;100.00;99642.50;5013865;28;20385;-78
2022/01/01 00:26:11;;;;;;;9.15;6.90;;;;;;;10.68;100.00;99654.31;5014466;28;20021;-78
2022/01/01 00:28:37;;;;;;;9.27;6.53;;;;;;;10.62;100.00;99649.41;5014546;28;20037;-78
2022/01/01 00:31:05;;;;;;;8.85;6.63;;;;;;;10.63;100.00;99652.84;5010813;28;20379;-78
2022/01/01 00:33:30;;;;;;;8.25;6.68;;;;;;;10.71;100.00;99664.59;5014023;28;20038;-78
2022/01/01 00:35:56;;;;;;;10.40;7.05;;;;;;;10.61;100.00;99647.69;5013767;28;20102;-78
2022/01/01 00:38:23;;;;;;;12.07;7.95;;;;;;;10.72;100.00;99687.13;5013880;28;20034;-78
2022/01/01 00:40:48;;;;;;;11.55;8.75;;;;;;;10.68;100.00;99682.13;5013906;28;20029;-78
2022/01/01 00:43:14;;;;;;;12.23;9.20;;;;;;;10.61;100.00;99657.28;5013894;28;20040;-78
2022/01/01 00:45:41;;;;;;;12.63;9.35;;;;;;;10.65;100.00;99675.28;5013864;28;20355;-78
2022/01/01 00:48:06;;;;;;;18.73;11.57;;;;;;;10.68;100.00;99676.91;5013645;28;20033;-78
2022/01/01 00:50:32;;;;;;;11.85;9.15;;;;;;;10.66;100.00;99679.59;5013671;28;20474;-78
2022/01/01 00:53:02;;;;;;;15.45;10.68;;;;;;;10.62;100.00;99678.06;5013765;28;20084;-78
2022/01/01 00:55:28;;;;;;;14.73;10.63;;;;;;;10.69;100.00;99687.25;5013825;28;20087;-78
2022/01/01 00:57:53;;;;;;;15.07;10.25;;;;;;;10.72;100.00;99694.94;5010235;28;20390;-78
2022/01/01 01:00:19;;;;;;;14.02;10.00;;;;;;;10.67;100.00;99685.66;5013719;28;20125;-78
2022/01/01 01:02:45;;;;;;;11.82;10.05;;;;;;;10.67;100.00;99694.31;5013382;28;20026;-78
2022/01/01 01:05:11;;;;;;;12.00;9.05;;;;;;;10.72;100.00;99699.31;5013416;28;20034;-78
2022/01/01 01:07:36;;;;;;;10.90;8.50;;;;;;;10.56;100.00;99672.28;5013677;28;20037;-78
2022/01/01 01:10:04;;;;;;;9.85;8.00;;;;;;;10.66;100.00;99699.56;5013394;28;20508;-78
2022/01/01 01:12:39;;;;;;;8.70;7.60;;;;;;;10.62;100.00;99698.03;5013470;28;20026;-78
2022/01/01 01:15:05;;;;;;;9.50;7.47;;;;;;;10.67;100.00;99709.94;5013106;28;20021;-78
2022/01/01 01:17:31;;;;;;;10.57;8.07;;;;;;;10.71;100.00;99714.09;5013279;28;20112;-79
2022/01/01 01:19:56;;;;;;;9.93;7.43;;;;;;;10.67;100.00;99714.31;5012073;28;20474;-78
2022/01/01 01:22:21;;;;;;;10.38;8.68;;;;;;;10.68;100.00;99718.59;5012957;28;20433;-78
2022/01/01 01:24:47;;;;;;;8.27;7.18;;;;;;;10.52;100.00;99691.56;4995395;28;20026;-78
2022/01/01 01:27:12;;;;;;;8.82;6.80;;;;;;;10.57;100.00;99700.00;5013136;28;20377;-78
2022/01/01 01:29:42;;;;;;;9.95;7.70;;;;;;;10.66;100.00;99723.88;5013166;28;20069;-78
2022/01/01 01:32:08;;;;;;;11.60;8.07;;;;;;;10.55;100.00;99710.50;5012926;28;20099;-78
2022/01/01 01:34:33;;;;;;;9.73;6.85;;;;;;;10.62;100.00;99724.06;5013005;28;20034;-78
2022/01/01 01:36:58;;;;;;;8.55;6.95;;;;;;;10.66;100.00;99725.63;5012990;28;20030;-78
2022/01/01 01:39:24;;;;;;;12.07;8.25;;;;;;;10.56;100.00;99717.38;5013260;28;20032;-78
2022/01/01 01:41:51;;;;;;;11.05;7.78;;;;;;;10.64;100.00;99732.69;5012732;28;20429;-78
2022/01/01 01:44:33;;;;;;;10.80;7.63;;;;;;;10.63;100.00;99733.59;5012883;28;20041;-78
2022/01/01 01:47:12;;;;;;;11.60;7.43;;;;;;;10.67;100.00;99748.16;4994793;28;20113;-78
2022/01/01 01:49:38;;;;;;;8.43;7.35;;;;;;;10.55;100.00;99730.50;5013002;28;20029;-78
2022/01/01 01:52:03;;;;;;;9.23;8.20;;;;;;;10.61;100.00;99741.47;5012396;28;20025;-78
2022/01/01 01:54:29;;;;;;;9.38;8.35;;;;;;;10.63;100.00;99752.66;4994956;28;20057;-78
2022/01/01 01:56:55;;;;;;;10.23;8.68;;;;;;;10.61;100.00;99744.06;5012418;28;20111;-78
2022/01/01 01:59:21;;;;;;;14.35;8.25;;;;;;;10.57;100.00;99728.66;5012532;28;20037;-78
2022/01/01 02:01:46;;;;;;;10.07;9.07;;;;;;;10.61;100.00;99754.47;5012697;28;20034;-78
2022/01/01 02:04:12;;;;;;;10.75;8.18;;;;;;;10.62;100.00;99761.41;5012466;28;20374;-78
2022/01/01 02:06:39;;;;;;;12.13;8.60;;;;;;;10.60;100.00;99755.41;4994835;28;20116;-78
2022/01/01 02:09:05;;;;;;;9.25;8.05;;;;;;;10.62;100.00;99760.53;5012137;28;20025;-78
2022/01/01 02:11:30;;;;;;;11.10;7.60;;;;;;;10.58;100.00;99759.00;5012396;28;20037;-78
2022/01/01 02:18:47;;;;;;;10.63;9.38;;;;;;;10.52;100.00;99754.06;5012234;28;20034;-78
2022/01/01 02:21:14;;;;;;;11.93;9.25;;;;;;;10.60;100.00;99762.38;5012153;28;20081;-78
2022/01/01 02:23:43;;;;;;;13.35;9.73;;;;;;;10.61;100.00;99769.28;5012112;28;20034;-78
2022/01/01 02:26:12;;;;;;;11.52;9.60;;;;;;;10.60;100.00;99771.03;4994368;28;20476;-78
2022/01/01 02:28:48;;;;;;;11.52;9.13;;;;;;;10.62;100.00;99781.38;4994474;28;20124;-78
2022/01/01 02:31:14;;;;;;;9.35;8.38;;;;;;;10.51;100.00;99757.59;5011230;28;20508;-78
2022/01/01 02:33:42;;;;;;;12.32;9.68;;;;;;;10.53;100.00;99764.41;5012240;28;20087;-78
2022/01/01 02:36:07;;;;;;;10.90;9.57;;;;;;;10.56;100.00;99771.25;5011954;28;20524;-78
2022/01/01 02:38:34;;;;;;;11.25;9.70;;;;;;;10.54;100.00;99776.53;5012112;28;20036;-78
2022/01/01 02:41:00;;;;;;;10.32;8.57;;;;;;;10.50;100.00;99761.94;5011762;28;20101;-78
2022/01/01 02:43:25;;;;;;;10.52;9.38;;;;;;;10.61;100.00;99788.34;4994559;28;20030;-78
2022/01/01 02:45:52;;;;;;;12.18;9.95;;;;;;;10.61;100.00;99783.13;5012247;28;20022;-78
2022/01/01 02:48:17;;;;;;;13.70;10.65;;;;;;;10.52;100.00;99764.47;4994662;28;20041;-78
2022/01/01 02:50:43;;;;;;;13.68;9.52;;;;;;;10.59;100.00;99787.59;5012169;28;20026;-78
2022/01/01 02:53:16;;;;;;;11.70;10.25;;;;;;;10.61;100.00;99795.31;4994409;28;20428;-78
2022/01/01 02:55:43;;;;;;;11.57;10.38;;;;;;;10.54;100.00;99778.28;5011895;28;20113;-78
2022/01/01 02:58:12;;;;;;;11.95;9.65;;;;;;;10.48;100.00;99764.59;5011649;28;20046;-78
2022/01/01 03:00:39;;;;;;;12.00;10.10;;;;;;;10.61;100.00;99795.31;5012046;28;20477;-78
2022/01/01 03:03:05;;;;;;;12.00;9.98;;;;;;;10.62;100.00;99792.66;4993991;28;20071;-78
2022/01/01 03:05:31;;;;;;;12.63;9.82;;;;;;;10.62;100.00;99786.59;5011828;28;20026;-78
2022/01/01 03:07:57;;;;;;;12.05;9.10;;;;;;;10.62;100.00;99791.78;5011635;28;20030;-78
2022/01/01 03:10:23;;;;;;;9.95;8.75;;;;;;;10.56;100.00;99781.66;5011734;28;20037;-78
2022/01/01 03:12:48;;;;;;;9.65;8.70;;;;;;;10.48;100.00;99775.03;5011759;28;20042;-78
2022/01/01 03:15:14;;;;;;;10.70;9.60;;;;;;;10.61;100.00;99801.38;5011581;28;20030;-78
2022/01/01 03:17:39;;;;;;;11.43;8.65;;;;;;;10.66;100.00;99808.97;5011692;28;20037;-78
2022/01/01 03:20:05;;;;;;;10.60;8.57;;;;;;;10.44;100.00;99772.63;5011437;28;20509;-78
2022/01/01 03:22:31;;;;;;;11.65;9.35;;;;;;;10.61;100.00;99796.16;5011470;28;20036;-78
2022/01/01 03:24:56;;;;;;;9.18;8.27;;;;;;;10.67;100.00;99805.47;5011417;28;20034;-78
2022/01/01 03:27:22;;;;;;;9.93;8.93;;;;;;;10.62;100.00;99797.00;5011676;28;20037;-78
2022/01/01 03:29:47;;;;;;;10.75;8.65;;;;;;;10.48;100.00;99780.22;5011799;28;20025;-78
2022/01/01 03:32:13;;;;;;;10.77;8.93;;;;;;;10.58;100.00;99801.53;5011369;28;20034;-78
2022/01/01 03:34:38;;;;;;;10.13;8.95;;;;;;;10.64;100.00;99806.44;5011623;28;20037;-78
2022/01/01 03:37:04;;;;;;;12.32;9.85;;;;;;;10.62;100.00;99800.47;4993915;28;20022;-78
2022/01/01 03:39:29;;;;;;;10.55;8.85;;;;;;;10.57;100.00;99793.75;4993796;28;20117;-78
2022/01/01 03:41:55;;;;;;;12.60;9.10;;;;;;;10.67;100.00;99816.75;5011477;28;20022;-78
2022/01/01 03:44:20;;;;;;;9.52;7.97;;;;;;;10.64;100.00;99813.41;5014418;28;20033;-78
2022/01/01 03:46:46;;;;;;;10.95;8.07;;;;;;;10.55;100.00;99813.84;4997370;28;20109;-78
2022/01/01 03:49:11;;;;;;;10.40;7.82;;;;;;;10.57;100.00;99814.59;5014750;28;20038;-78
2022/01/01 03:51:37;;;;;;;10.32;8.15;;;;;;;10.57;100.00;99806.78;4997360;28;20350;-78
2022/01/01 03:54:02;;;;;;;10.73;7.43;;;;;;;10.63;100.00;99825.59;5014642;28;20469;-78
2022/01/01 03:56:27;;;;;;;11.27;8.40;;;;;;;10.62;100.00;99825.66;5015293;28;20026;-78
2022/01/01 03:58:53;;;;;;;10.77;8.45;;;;;;;10.54;100.00;99814.75;5014976;28;20026;-78
2022/01/01 04:01:18;;;;;;;8.90;7.25;;;;;;;10.52;100.00;99811.34;5014660;28;20474;-78
2022/01/01 04:03:44;;;;;;;10.60;8.52;;;;;;;10.60;100.00;99828.34;5014673;28;20220;-78
2022/01/01 04:06:09;;;;;;;8.65;7.53;;;;;;;10.60;100.00;99830.09;4996829;28;20026;-78
2022/01/01 04:08:35;;;;;;;11.63;8.65;;;;;;;10.65;100.00;99838.53;5014483;28;20499;-78
2022/01/01 04:11:00;;;;;;;11.05;8.13;;;;;;;10.53;100.00;99828.66;4996870;28;20034;-78
2022/01/01 04:13:26;;;;;;;10.43;8.05;;;;;;;10.41;100.00;99804.03;5014595;28;20104;-79
2022/01/01 04:15:51;;;;;;;10.45;7.97;;;;;;;10.60;100.00;99841.34;4996929;28;20026;-78
2022/01/01 04:18:26;;;;;;;9.30;7.70;;;;;;;10.52;100.00;99842.59;5014340;28;20026;-78
2022/01/01 04:20:52;;;;;;;9.45;7.82;;;;;;;10.52;100.00;99840.00;5014267;28;20050;-78
2022/01/01 04:23:17;;;;;;;8.57;7.35;;;;;;;10.63;100.00;99859.47;5013878;28;20378;-78
2022/01/01 04:25:47;;;;;;;9.50;8.50;;;;;;;10.54;100.00;99839.03;5014487;28;20034;-78
2022/01/01 04:28:13;;;;;;;9.77;7.60;;;;;;;10.62;100.00;99860.38;5014174;28;20030;-78
2022/01/01 04:30:39;;;;;;;9.20;7.53;;;;;;;10.61;100.00;99856.06;5014236;28;20062;-78
2022/01/01 04:33:04;;;;;;;10.93;7.30;;;;;;;10.66;100.00;99872.38;5013993;28;20081;-78
2022/01/01 04:35:30;;;;;;;8.82;6.93;;;;;;;10.62;100.00;99862.13;5014029;28;20462;-78
2022/01/01 04:37:55;;;;;;;8.20;6.90;;;;;;;10.59;100.00;99876.13;5014006;28;20073;-78
2022/01/01 04:40:21;;;;;;;8.18;6.10;;;;;;;10.61;100.00;99870.84;5014234;28;20030;-78
2022/01/01 04:42:46;;;;;;;5.82;5.22;;;;;;;10.60;100.00;99872.63;4996415;28;20499;-78
2022/01/01 04:45:12;;;;;;;7.18;5.88;;;;;;;10.53;100.00;99865.97;5014057;28;20060;-78
2022/01/01 04:47:38;;;;;;;5.05;4.55;;;;;;;10.51;100.00;99859.16;5013944;28;20034;-78
2022/01/01 04:50:04;;;;;;;6.75;5.13;;;;;;;10.58;100.00;99873.59;5013587;28;20088;-78
2022/01/01 04:52:31;;;;;;;8.13;5.03;;;;;;;10.55;100.00;99869.38;5013983;28;20108;-78
2022/01/01 04:54:56;;;;;;;6.38;5.22;;;;;;;10.54;100.00;99859.88;5012750;28;20451;-78
2022/01/01 04:57:27;;;;;;;6.95;5.82;;;;;;;10.59;100.00;99867.47;5013612;28;20030;-78
2022/01/01 04:59:53;;;;;;;7.70;6.43;;;;;;;10.54;100.00;99861.63;5013718;28;20030;-78
2022/01/01 05:02:18;;;;;;;8.45;6.57;;;;;;;10.59;100.00;99876.13;5013302;28;20042;-78
2022/01/01 05:04:43;;;;;;;9.23;8.30;;;;;;;10.44;100.00;99858.56;5013440;28;20026;-78
2022/01/01 05:07:09;;;;;;;8.35;7.30;;;;;;;10.50;100.00;99863.50;5013413;28;20037;-78
2022/01/01 05:09:34;;;;;;;8.43;7.28;;;;;;;10.59;100.00;99880.50;5013680;28;20029;-78
2022/01/01 05:12:00;;;;;;;8.18;7.32;;;;;;;10.57;100.00;99883.16;5013609;28;20030;-78
2022/01/01 05:14:25;;;;;;;9.02;7.22;;;;;;;10.46;100.00;99861.94;5013373;28;20030;-78
2022/01/01 05:16:52;;;;;;;8.05;7.15;;;;;;;10.53;100.00;99873.78;5013411;28;20057;-78
2022/01/01 05:19:18;;;;;;;11.93;6.72;;;;;;;10.58;100.00;99887.47;4995313;28;20046;-78
2022/01/01 05:21:43;;;;;;;6.70;5.90;;;;;;;10.57;100.00;99884.91;5013479;28;20033;-78
2022/01/01 05:24:09;;;;;;;7.28;6.47;;;;;;;10.53;100.00;99885.97;5012933;28;20033;-78
2022/01/01 05:26:34;;;;;;;8.23;6.60;;;;;;;10.61;100.00;99905.56;4995657;28;20026;-78
2022/01/01 05:29:00;;;;;;;6.95;6.25;;;;;;;10.59;100.00;99899.56;5011932;28;20080;-78
2022/01/01 05:31:26;;;;;;;6.18;5.50;;;;;;;10.62;100.00;99903.78;5012900;28;20026;-78
2022/01/01 05:33:53;;;;;;;6.03;5.43;;;;;;;10.62;100.00;99906.41;5013004;28;20026;-78
2022/01/01 05:36:18;;;;;;;7.32;5.95;;;;;;;10.55;100.00;99891.97;4995010;28;20425;-78
2022/01/01 05:38:46;;;;;;;7.65;6.43;;;;;;;10.62;100.00;99915.09;5013054;28;20080;-78
2022/01/01 05:41:12;;;;;;;7.45;6.40;;;;;;;10.65;100.00;99914.94;5012828;28;20026;-78
2022/01/01 05:43:37;;;;;;;7.22;6.53;;;;;;;10.56;100.00;99904.91;5012894;28;20433;-78
2022/01/01 05:46:03;;;;;;;7.63;6.82;;;;;;;10.52;100.00;99892.09;5013150;28;20026;-78
2022/01/01 05:48:29;;;;;;;6.60;5.82;;;;;;;10.62;100.00;99903.78;5012694;28;20041;-78
2022/01/01 05:50:54;;;;;;;9.05;6.68;;;;;;;10.67;100.00;99928.75;4995258;28;20021;-78
2022/01/01 05:53:20;;;;;;;7.82;6.35;;;;;;;10.63;100.00;99913.31;4970917;28;20050;-78
2022/01/01 05:55:46;;;;;;;9.93;7.03;;;;;;;10.56;100.00;99914.47;4955023;28;20112;-78
2022/01/01 05:58:12;;;;;;;8.30;6.82;;;;;;;10.59;100.00;99927.38;4970948;28;20043;-78
2022/01/01 06:00:38;;;;;;;7.93;6.43;;;;;;;10.64;100.00;99928.88;4971204;28;20038;-78
2022/01/01 06:03:03;;;;;;;6.82;6.05;;;;;;;10.62;100.00;99935.03;4970932;28;20125;-78
2022/01/01 06:05:30;;;;;;;7.95;6.43;;;;;;;10.55;100.00;99934.47;4970703;28;20097;-78
2022/01/01 06:07:57;;;;;;;8.65;6.72;;;;;;;10.56;100.00;99946.59;4971091;28;20041;-78
2022/01/01 06:10:23;;;;;;;6.63;5.90;;;;;;;10.45;100.00;99923.59;4970893;28;20033;-78
2022/01/01 06:12:49;;;;;;;7.68;5.05;;;;;;;10.44;100.00;99924.50;4970851;28;20047;-78
2022/01/01 06:15:14;;;;;;;7.10;5.53;;;;;;;10.47;100.00;99941.75;4970737;28;20050;-78
2022/01/01 06:17:40;;;;;;;5.75;5.15;;;;;;;10.54;100.00;99947.56;4970904;28;20093;-78
2022/01/01 06:20:06;;;;;;;6.68;5.60;;;;;;;10.53;100.00;99943.25;4970574;28;20128;-78
2022/01/01 06:22:31;;;;;;;6.80;6.10;;;;;;;10.47;100.00;99936.56;4954489;28;20026;-78
2022/01/01 06:24:57;;;;;;;6.57;5.65;;;;;;;10.47;100.00;99936.56;5002523;28;20631;-78
2022/01/01 06:27:22;;;;;;;6.25;5.55;;;;;;;10.56;100.00;99961.38;4994813;28;20022;-78
2022/01/01 06:29:48;;;;;;;6.45;5.55;;;;;;;10.57;100.00;99973.47;4994604;28;20038;-78
2022/01/01 06:32:13;;;;;;;7.78;5.80;;;;;;;10.45;100.00;99957.47;5011820;28;20386;-78
2022/01/01 06:34:39;;;;;;;5.60;5.00;;;;;;;10.44;100.00;99953.13;5012122;28;20026;-78
2022/01/01 06:37:04;;;;;;;8.70;5.38;;;;;;;10.58;100.00;99972.59;5012298;28;20109;-78
2022/01/01 06:39:29;;;;;;;7.05;5.93;;;;;;;10.45;100.00;99959.22;5012031;28;20496;-78
2022/01/01 06:41:55;;;;;;;7.88;5.93;;;;;;;10.58;100.00;99981.25;5012116;28;20084;-78
2022/01/01 06:44:20;;;;;;;6.65;5.53;;;;;;;10.49;100.00;99968.56;5011801;28;20029;-78
2022/01/01 06:46:45;;;;;;;8.82;6.20;;;;;;;10.55;100.00;99980.50;5012014;28;20026;-78
2022/01/01 06:49:11;;;;;;;7.70;6.32;;;;;;;10.57;100.00;99986.50;5011762;28;20061;-78
2022/01/01 06:51:36;;;;;;;7.45;6.18;;;;;;;10.44;100.00;99962.72;5012227;28;20521;-78
2022/01/01 06:54:03;;;;;;;7.93;6.72;;;;;;;10.44;100.00;99963.56;5012114;28;20026;-78
2022/01/01 06:56:29;;;;;;;10.57;7.13;;;;;;;10.52;100.00;99975.41;5011802;28;20037;-78
2022/01/01 06:58:54;;;;;;;10.38;7.30;;;;;;;10.44;100.00;99984.38;5011859;28;20026;-78
2022/01/01 07:01:19;;;;;;;9.57;7.43;;;;;;;10.49;100.00;99976.38;4994061;28;20018;-78
2022/01/01 07:03:45;;;;;;;11.93;8.13;;;;;;;10.37;100.00;99976.91;4994170;28;20124;-78
2022/01/01 07:06:10;;;;;;;11.60;7.93;;;;;;;10.50;100.00;99998.94;5011809;28;20105;-78
2022/01/01 07:08:36;;;;;;;10.02;7.82;;;;;;;10.52;100.00;99998.88;5011888;28;20532;-78
2022/01/01 07:11:01;;;;;;;10.25;8.48;;;;;;;10.42;100.00;99988.81;5011847;28;20033;-78
2022/01/01 07:13:26;;;;;;;10.80;8.05;;;;;;;10.48;100.00;99992.94;5011443;28;20084;-78
2022/01/01 07:15:52;;;;;;;10.65;8.68;;;;;;;10.51;100.00;100000.63;5012042;28;20030;-78
2022/01/01 07:18:17;;;;;;;11.43;8.32;;;;;;;10.43;100.00;99982.69;5013151;28;20113;-78
2022/01/01 07:20:43;;;;;;;12.05;8.80;;;;;;;10.52;100.00;100004.06;5015786;28;20145;-78
2022/01/01 07:23:09;;;;;;;13.25;9.02;;;;;;;10.42;100.00;99977.56;5015701;28;20080;-78
2022/01/01 07:25:35;;;;;;;9.52;7.93;;;;;;;10.54;100.00;100008.31;5016039;28;20033;-78
2022/01/01 07:28:00;;;;;;;14.02;9.85;;;;;;;10.52;100.00;100007.53;5015709;28;20044;-78
2022/01/01 07:30:26;;;;;;;13.18;8.77;;;;;;;10.42;100.00;99988.81;5015322;28;20030;-78
2022/01/01 07:32:51;;;;;;;12.70;9.02;;;;;;;10.44;100.00;99989.59;5014130;28;20053;-78
2022/01/01 07:35:19;;;;;;;12.23;8.20;;;;;;;10.46;100.00;100006.03;5015449;28;20029;-78
2022/01/01 07:37:45;;;;;;;10.85;8.80;;;;;;;10.52;100.00;100012.72;5015640;28;20087;-78
2022/01/01 07:40:12;;;;;;;11.77;8.43;;;;;;;10.44;100.00;100002.63;5015297;28;20030;-78
2022/01/01 07:42:38;;;;;;;12.48;8.30;;;;;;;10.52;100.00;100017.09;5015069;28;20466;-78
2022/01/01 07:45:05;;;;;;;12.75;7.93;;;;;;;10.53;100.00;100018.78;5015074;28;20159;-78
2022/01/01 07:47:30;;;;;;;13.20;8.63;;;;;;;10.58;100.00;100035.94;5014691;28;20084;-78
2022/01/01 07:49:56;;;;;;;14.05;8.70;;;;;;;10.54;100.00;100033.53;5015108;28;20030;-78
2022/01/01 07:52:21;;;;;;;12.30;9.27;;;;;;;10.52;100.00;100030.97;5014612;28;20583;-78
2022/01/01 07:54:47;;;;;;;14.65;10.93;;;;;;;10.46;100.00;100016.44;5015074;28;20121;-78
2022/01/01 07:57:12;;;;;;;16.08;10.32;;;;;;;10.56;100.00;100029.94;5014911;28;20386;-78
2022/01/01 07:59:38;;;;;;;12.23;9.65;;;;;;;10.56;100.00;100045.56;4997233;28;20030;-78
2022/01/01 08:02:03;;;;;;;15.07;9.70;;;;;;;10.48;100.00;100034.59;5014574;28;20050;-78
2022/01/01 08:04:28;;;;;;;17.73;10.50;;;;;;;10.55;100.00;100053.44;5014572;28;20034;-78
2022/01/01 08:06:54;;;;;;;13.82;10.73;;;;;;;10.47;100.00;100041.56;5025250;28;20052;-78
2022/01/01 08:09:19;;;;;;;18.08;11.52;;;;;;;10.45;100.00;100042.56;5034242;28;20025;-78
2022/01/01 08:11:44;;;;;;;15.82;11.95;;;;;;;10.57;100.00;100069.84;5034646;28;20362;-78
2022/01/01 08:14:10;;;;;;;14.70;10.65;;;;;;;10.46;100.00;100052.91;5034244;28;20034;-78
2022/01/01 08:16:58;;;;;;;17.75;11.65;;;;;;;10.48;100.00;100056.28;5033873;28;20559;-78
2022/01/01 08:19:23;;;;;;;14.13;10.43;;;;;;;10.59;100.00;100068.03;5012639;28;20496;-78
2022/01/01 08:21:49;;;;;;;16.10;11.45;;;;;;;10.53;100.00;100052.63;5014471;28;20033;-78
2022/01/01 08:24:14;;;;;;;19.98;12.20;;;;;;;10.61;100.00;100055.78;5014019;28;20029;-78
2022/01/01 08:26:39;;;;;;;15.00;12.00;;;;;;;10.59;100.00;100063.66;5013106;28;20066;-78
2022/01/01 08:29:05;;;;;;;14.65;10.65;;;;;;;10.60;100.00;100054.09;5014151;28;20089;-78
2022/01/01 08:31:30;;;;;;;15.38;11.85;;;;;;;10.58;100.00;100061.13;5014058;28;20026;-78
2022/01/01 08:33:55;;;;;;;16.95;12.23;;;;;;;10.58;100.00;100069.78;5014299;28;20033;-78
2022/01/01 08:36:21;;;;;;;17.13;12.10;;;;;;;10.62;100.00;100065.28;5013883;28;20026;-78
2022/01/01 08:38:48;;;;;;;13.77;11.68;;;;;;;10.72;100.00;100064.88;5014136;28;20061;-78
2022/01/01 08:41:13;;;;;;;17.02;12.82;;;;;;;10.82;100.00;100080.13;5014308;28;20029;-78
2022/01/01 08:43:38;;;;;;;19.00;12.07;;;;;;;10.65;100.00;100045.19;5013740;28;20037;-78
2022/01/01 08:46:04;;;;;;;16.25;13.48;;;;;;;10.80;100.00;100064.56;5014081;28;20022;-78
2022/01/01 08:48:30;;;;;;;16.30;11.70;;;;;;;10.84;100.00;100078.31;5014048;28;20025;-78
2022/01/01 08:50:56;;;;;;;19.30;13.23;;;;;;;10.88;100.00;100080.72;5013905;28;20061;-78
2022/01/01 08:53:22;;;;;;;15.93;11.38;;;;;;;10.82;100.00;100064.50;5013566;28;20041;-78
2022/01/01 08:55:48;;;;;;;16.23;12.15;;;;;;;10.78;100.00;100061.16;5013648;28;20030;-78
2022/01/01 08:58:25;;;;;;;15.70;10.70;;;;;;;10.75;100.00;100056.09;5013569;28;20026;-78
2022/01/01 09:00:51;;;;;;;15.50;10.88;;;;;;;10.83;100.00;100077.47;5013789;28;20029;-78
2022/01/01 09:03:20;;;;;;;18.45;11.63;;;;;;;10.92;100.00;100104.91;5012145;28;20038;-78
2022/01/01 09:05:46;;;;;;;16.30;10.95;;;;;;;10.86;100.00;100095.56;5013642;28;20026;-78
2022/01/01 09:08:12;;;;;;;18.42;11.82;;;;;;;10.70;100.00;100064.09;5013506;28;20461;-78
2022/01/01 09:10:38;;;;;;;17.20;11.00;;;;;;;10.93;100.00;100096.19;5013041;28;20030;-79
2022/01/01 09:13:08;;;;;;;17.60;12.10;;;;;;;10.89;100.00;100095.44;4994853;28;20050;-78
2022/01/01 09:15:35;;;;;;;17.92;11.98;;;;;;;10.91;100.00;100098.84;5013148;28;20033;-78
2022/01/01 09:18:01;;;;;;;15.57;10.88;;;;;;;10.82;100.00;100080.97;5013714;28;20030;-78
2022/01/01 09:20:28;;;;;;;15.85;10.35;;;;;;;10.86;100.00;100095.56;5027257;28;20049;-78
2022/01/01 09:22:56;;;;;;;15.70;11.05;;;;;;;10.90;100.00;100114.53;5015240;28;20036;-78
2022/01/01 09:25:22;;;;;;;15.77;10.43;;;;;;;10.87;100.00;100119.88;5027464;28;20029;-78
2022/01/01 09:27:47;;;;;;;15.23;9.70;;;;;;;10.82;100.00;100108.78;5032797;28;20558;-78
2022/01/01 09:30:23;;;;;;;18.23;10.40;;;;;;;10.73;100.00;100116.06;5032817;28;20030;-78
2022/01/01 09:32:52;;;;;;;17.90;10.68;;;;;;;10.78;100.00;100128.91;5032723;28;20112;-78
2022/01/01 09:35:18;;;;;;;16.25;9.80;;;;;;;10.71;100.00;100114.44;5032318;28;20041;-78
2022/01/01 09:37:45;;;;;;;11.00;8.85;;;;;;;10.72;100.00;100132.59;5032654;28;20025;-78
2022/01/01 09:40:12;;;;;;;13.35;9.13;;;;;;;10.68;100.00;100133.63;5032296;28;20021;-78
2022/01/01 09:42:43;;;;;;;11.35;7.82;;;;;;;10.73;100.00;100139.50;5032268;28;20091;-78
2022/01/01 09:45:09;;;;;;;12.23;8.63;;;;;;;10.60;100.00;100121.81;5032662;28;20025;-78
2022/01/01 09:47:38;;;;;;;16.38;9.77;;;;;;;10.66;100.00;100140.69;5032193;28;20025;-78
2022/01/01 09:50:18;;;;;;;19.05;11.88;;;;;;;10.73;100.00;100138.66;5014724;28;20374;-78
2022/01/01 09:52:45;;;;;;;14.68;9.52;;;;;;;10.69;100.00;100142.28;5013921;28;20037;-78
2022/01/01 09:55:10;;;;;;;12.27;8.15;;;;;;;10.74;100.00;100155.97;5032433;28;20030;-78
2022/01/01 09:57:37;;;;;;;13.45;8.73;;;;;;;10.71;100.00;100135.28;5032188;28;20477;-78
2022/01/01 10:00:05;;;;;;;13.00;8.90;;;;;;;10.81;100.00;100151.38;5032354;28;20032;-78
2022/01/01 10:02:32;;;;;;;19.67;11.27;;;;;;;10.77;100.00;100150.66;4989162;28;20042;-78
2022/01/01 10:05:13;;;;;;;9.85;7.18;;;;;;;10.69;100.00;100143.13;4973364;28;20053;-78
2022/01/01 10:07:40;;;;;;;10.52;7.88;;;;;;;10.72;100.00;100140.41;4973386;28;20054;-79
2022/01/01 10:10:25;;;;;;;12.23;8.95;;;;;;;10.83;100.00;100152.16;4970871;28;20038;-78
2022/01/01 10:12:51;;;;;;;12.35;7.43;;;;;;;10.84;100.00;100162.53;4954591;28;20031;-78
2022/01/01 10:15:18;;;;;;;9.07;6.97;;;;;;;10.85;100.00;100161.63;4970723;28;20062;-79
2022/01/01 10:17:45;;;;;;;12.38;8.35;;;;;;;10.75;100.00;100149.88;4934950;28;20039;-78
2022/01/01 10:20:14;;;;;;;13.00;8.65;;;;;;;10.80;100.00;100149.69;4918919;29;20375;-78
2022/01/01 10:22:52;;;;;;;10.85;7.78;;;;;;;10.86;100.00;100157.25;4934829;29;20051;-78
2022/01/01 10:28:21;;;;;;;13.02;8.38;;;;;;;10.82;100.00;100147.88;4951703;29;20046;-78
2022/01/01 10:31:01;;;;;;;12.65;8.75;;;;;;;10.97;100.00;100168.13;4919243;29;20035;-78
2022/01/01 10:33:32;;;;;;;15.20;8.95;;;;;;;10.80;100.00;100137.53;4935249;29;20046;-78
2022/01/01 10:36:04;;;;;;;11.23;8.23;;;;;;;10.91;100.00;100163.13;4919242;29;20462;-78
2022/01/01 10:38:30;;;;;;;14.20;10.80;;;;;;;10.87;100.00;100157.22;4958933;28;20046;-78
2022/01/01 10:41:05;;;;;;;17.00;11.55;;;;;;;11.01;100.00;100180.13;4959598;28;20677;-78
2022/01/01 10:44:05;;;;;;;15.45;10.60;;;;;;;11.02;100.00;100163.56;4967606;28;20047;-78
2022/01/01 10:46:38;;;;;;;19.52;12.13;;;;;;;11.01;100.00;100177.50;4944981;28;20031;-78
2022/01/01 10:49:31;;;;;;;28.67;14.88;;;;;;;11.05;100.00;100181.69;4981518;28;20042;-78
2022/01/01 10:52:16;;;;;;;20.38;13.90;;;;;;;11.06;100.00;100183.38;4981145;28;20046;-78
2022/01/01 10:54:52;;;;;;;20.27;12.70;;;;;;;11.08;100.00;100176.38;4983352;28;20042;-78
2022/01/01 10:57:27;;;;;;;17.60;12.18;;;;;;;11.07;100.00;100176.41;4981516;28;20031;-77
2022/01/01 11:00:24;;;;;;;15.40;10.88;;;;;;;11.06;100.00;100183.38;4983142;28;20034;-77
2022/01/01 11:02:58;;;;;;;17.80;12.05;;;;;;;10.96;100.00;100169.03;4965343;28;20059;-78
2022/01/01 11:05:38;;;;;;;18.35;13.35;;;;;;;11.03;100.00;100173.06;4947245;28;20043;-78
2022/01/01 11:08:07;;;;;;;18.30;13.65;;;;;;;11.05;100.00;100180.84;4936017;28;20750;-78
2022/01/01 11:10:38;;;;;;;24.45;14.68;;;;;;;11.08;100.00;100192.00;4982625;28;20070;-78
2022/01/01 11:13:07;;;;;;;26.75;17.25;;;;;;;11.08;100.00;100185.91;4980435;28;20030;-79
2022/01/01 11:15:33;;;;;;;22.52;14.88;;;;;;;11.11;100.00;100185.81;4943273;29;20083;-78
2022/01/01 11:18:05;;;;;;;23.98;15.68;;;;;;;11.13;100.00;100191.81;4972944;28;20041;-79
2022/01/01 11:20:34;;;;;;;24.00;14.30;;;;;;;11.06;100.00;100175.56;4983618;28;20505;-81
2022/01/01 11:23:06;;;;;;;23.50;15.23;;;;;;;11.09;100.00;100175.44;4991558;28;20080;-80